sensor_id;sensor_type;location;lat;lon;timestamp;temperature;humidity
51841;DHT22;37888;53.246;6.658;2024-02-21T16:12:02;9.40;99.90
51841;DHT22;37888;53.246;6.658;2024-02-21T16:14:33;9.20;99.90
51841;DHT22;37888;53.246;6.658;2024-02-21T16:16:59;9.20;99.90
51841;DHT22;37888;53.246;6.658;2024-02-21T16:19:25;9.20;99.90
51841;DHT22;37888;53.246;6.658;2024-02-21T16:21:51;9.20;99.90
51841;DHT22;37888;53.246;6.658;2024-02-21T16:24:16;9.20;99.90
51841;DHT22;37888;53.246;6.658;2024-02-21T16:26:42;9.10;99.90
51841;DHT22;37888;53.246;6.658;2024-02-21T16:29:08;9.10;99.90
51841;DHT22;37888;53.246;6.658;2024-02-21T16:31:34;9.00;99.90
51841;DHT22;37888;53.246;6.658;2024-02-21T16:34:03;9.10;99.90
51841;DHT22;37888;53.246;6.658;2024-02-21T16:36:30;9.00;99.90
51841;DHT22;37888;53.246;6.658;2024-02-21T16:38:55;9.00;99.90
51841;DHT22;37888;53.246;6.658;2024-02-21T16:41:22;9.00;99.90
51841;DHT22;37888;53.246;6.658;2024-02-21T16:43:49;9.00;99.90
51841;DHT22;37888;53.246;6.658;2024-02-21T16:46:14;9.00;99.90
51841;DHT22;37888;53.246;6.658;2024-02-21T16:48:41;8.90;99.90
51841;DHT22;37888;53.246;6.658;2024-02-21T16:51:06;8.90;99.90
51841;DHT22;37888;53.246;6.658;2024-02-21T16:53:32;8.90;99.90
51841;DHT22;37888;53.246;6.658;2024-02-21T16:55:58;8.90;99.90
51841;DHT22;37888;53.246;6.658;2024-02-21T16:58:28;8.80;99.90
51841;DHT22;37888;53.246;6.658;2024-02-21T17:00:56;8.80;99.90
51841;DHT22;37888;53.246;6.658;2024-02-21T17:03:22;8.80;99.90
51841;DHT22;37888;53.246;6.658;2024-02-21T17:05:50;8.80;99.90
51841;DHT22;37888;53.246;6.658;2024-02-21T17:08:16;8.80;99.90
51841;DHT22;37888;53.246;6.658;2024-02-21T17:10:41;8.80;99.90
51841;DHT22;37888;53.246;6.658;2024-02-21T17:13:07;8.70;99.90
51841;DHT22;37888;53.246;6.658;2024-02-21T17:15:33;8.80;99.90
51841;DHT22;37888;53.246;6.658;2024-02-21T17:17:58;8.70;99.90
51841;DHT22;37888;53.246;6.658;2024-02-21T17:26:58;8.70;99.90
51841;DHT22;37888;53.246;6.658;2024-02-21T17:32:53;8.60;99.90
51841;DHT22;37888;53.246;6.658;2024-02-21T17:35:20;8.70;99.90
51841;DHT22;37888;53.246;6.658;2024-02-21T17:37:56;8.60;99.90
51841;DHT22;37888;53.246;6.658;2024-02-21T17:41:19;8.60;99.90
51841;DHT22;37888;53.246;6.658;2024-02-21T17:56:34;8.50;99.90
51841;DHT22;37888;53.246;6.658;2024-02-21T18:06:01;8.50;99.90
51841;DHT22;37888;53.246;6.658;2024-02-21T18:08:37;8.50;99.90
51841;DHT22;37888;53.246;6.658;2024-02-21T18:11:02;8.40;99.90
51841;DHT22;37888;53.246;6.658;2024-02-21T18:13:28;8.40;99.90
51841;DHT22;37888;53.246;6.658;2024-02-21T18:16:01;8.40;99.90
51841;DHT22;37888;53.246;6.658;2024-02-21T18:18:27;8.50;99.90
51841;DHT22;37888;53.246;6.658;2024-02-21T18:20:53;8.50;99.90
51841;DHT22;37888;53.246;6.658;2024-02-21T18:23:19;8.50;99.90
51841;DHT22;37888;53.246;6.658;2024-02-21T18:25:45;8.30;99.90
51841;DHT22;37888;53.246;6.658;2024-02-21T18:28:14;8.40;99.90
51841;DHT22;37888;53.246;6.658;2024-02-21T18:30:41;8.40;99.90
51841;DHT22;37888;53.246;6.658;2024-02-21T18:33:06;8.30;99.90
51841;DHT22;37888;53.246;6.658;2024-02-21T18:35:35;8.30;99.90
51841;DHT22;37888;53.246;6.658;2024-02-21T18:38:00;8.30;99.90
51841;DHT22;37888;53.246;6.658;2024-02-21T18:40:29;8.30;99.90
51841;DHT22;37888;53.246;6.658;2024-02-21T18:42:56;8.40;99.90
51841;DHT22;37888;53.246;6.658;2024-02-21T18:45:23;8.40;99.90
51841;DHT22;37888;53.246;6.658;2024-02-21T18:47:49;8.40;99.90
51841;DHT22;37888;53.246;6.658;2024-02-21T18:50:15;8.90;99.90
51841;DHT22;37888;53.246;6.658;2024-02-21T18:52:40;8.40;99.90
51841;DHT22;37888;53.246;6.658;2024-02-21T18:55:06;8.30;99.90
51841;DHT22;37888;53.246;6.658;2024-02-21T18:57:33;8.30;99.90
51841;DHT22;37888;53.246;6.658;2024-02-21T18:59:59;8.50;99.90
51841;DHT22;37888;53.246;6.658;2024-02-21T19:02:31;8.30;99.90
51841;DHT22;37888;53.246;6.658;2024-02-21T19:04:56;8.40;99.90
51841;DHT22;37888;53.246;6.658;2024-02-21T19:07:22;8.40;99.90
51841;DHT22;37888;53.246;6.658;2024-02-21T19:09:48;8.40;99.90
51841;DHT22;37888;53.246;6.658;2024-02-21T19:12:13;8.50;99.90
51841;DHT22;37888;53.246;6.658;2024-02-21T19:14:39;8.30;99.90
51841;DHT22;37888;53.246;6.658;2024-02-21T19:17:07;8.50;99.90
51841;DHT22;37888;53.246;6.658;2024-02-21T19:19:33;8.50;99.90
51841;DHT22;37888;53.246;6.658;2024-02-21T19:21:59;8.30;99.90
51841;DHT22;37888;53.246;6.658;2024-02-21T19:24:25;8.30;99.90
51841;DHT22;37888;53.246;6.658;2024-02-21T19:26:50;8.50;99.90
51841;DHT22;37888;53.246;6.658;2024-02-21T19:29:16;8.40;99.90
51841;DHT22;37888;53.246;6.658;2024-02-21T19:31:41;8.50;99.90
51841;DHT22;37888;53.246;6.658;2024-02-21T19:34:07;8.50;99.90
51841;DHT22;37888;53.246;6.658;2024-02-21T19:36:34;8.40;99.90
51841;DHT22;37888;53.246;6.658;2024-02-21T19:39:06;8.30;99.90
51841;DHT22;37888;53.246;6.658;2024-02-21T19:41:33;8.30;99.90
51841;DHT22;37888;53.246;6.658;2024-02-21T19:43:59;8.50;99.90
51841;DHT22;37888;53.246;6.658;2024-02-21T19:46:24;8.50;99.90
51841;DHT22;37888;53.246;6.658;2024-02-21T19:48:51;8.20;99.90
51841;DHT22;37888;53.246;6.658;2024-02-21T19:51:18;8.20;99.90
51841;DHT22;37888;53.246;6.658;2024-02-21T19:53:44;8.40;99.90
51841;DHT22;37888;53.246;6.658;2024-02-21T19:56:09;8.20;99.90
51841;DHT22;37888;53.246;6.658;2024-02-21T19:58:39;8.30;99.90
51841;DHT22;37888;53.246;6.658;2024-02-21T20:01:06;8.30;99.90
51841;DHT22;37888;53.246;6.658;2024-02-21T20:03:31;8.30;99.90
51841;DHT22;37888;53.246;6.658;2024-02-21T20:05:57;8.50;99.90
51841;DHT22;37888;53.246;6.658;2024-02-21T20:08:23;8.30;99.90
51841;DHT22;37888;53.246;6.658;2024-02-21T20:10:49;8.30;99.90
51841;DHT22;37888;53.246;6.658;2024-02-21T20:13:15;8.20;99.90
51841;DHT22;37888;53.246;6.658;2024-02-21T20:15:41;8.40;99.90
51841;DHT22;37888;53.246;6.658;2024-02-21T20:18:08;8.20;99.90
51841;DHT22;37888;53.246;6.658;2024-02-21T20:20:34;8.40;99.90
51841;DHT22;37888;53.246;6.658;2024-02-21T20:23:00;8.30;99.90
51841;DHT22;37888;53.246;6.658;2024-02-21T20:25:26;8.50;99.90
51841;DHT22;37888;53.246;6.658;2024-02-21T20:27:52;8.30;99.90
51841;DHT22;37888;53.246;6.658;2024-02-21T20:30:18;8.40;99.90
51841;DHT22;37888;53.246;6.658;2024-02-21T20:32:44;8.30;99.90
51841;DHT22;37888;53.246;6.658;2024-02-21T20:35:09;8.20;99.90
51841;DHT22;37888;53.246;6.658;2024-02-21T20:37:36;8.50;99.90
51841;DHT22;37888;53.246;6.658;2024-02-21T20:40:02;8.20;99.90
51841;DHT22;37888;53.246;6.658;2024-02-21T20:42:32;8.40;99.90
51841;DHT22;37888;53.246;6.658;2024-02-21T20:44:57;8.40;99.90
51841;DHT22;37888;53.246;6.658;2024-02-21T20:47:23;8.30;99.90
51841;DHT22;37888;53.246;6.658;2024-02-21T20:49:50;8.20;99.90
51841;DHT22;37888;53.246;6.658;2024-02-21T20:52:19;8.20;99.90
51841;DHT22;37888;53.246;6.658;2024-02-21T20:54:45;8.40;99.90
51841;DHT22;37888;53.246;6.658;2024-02-21T20:57:12;8.30;99.90
51841;DHT22;37888;53.246;6.658;2024-02-21T20:59:37;8.40;99.90
51841;DHT22;37888;53.246;6.658;2024-02-21T21:02:04;8.20;99.90
51841;DHT22;37888;53.246;6.658;2024-02-21T21:04:32;8.40;99.90
51841;DHT22;37888;53.246;6.658;2024-02-21T21:06:57;8.20;99.90
51841;DHT22;37888;53.246;6.658;2024-02-21T21:09:23;8.20;99.90
51841;DHT22;37888;53.246;6.658;2024-02-21T21:11:51;8.40;99.90
51841;DHT22;37888;53.246;6.658;2024-02-21T21:14:16;8.60;99.90
51841;DHT22;37888;53.246;6.658;2024-02-21T21:16:42;8.20;99.90
51841;DHT22;37888;53.246;6.658;2024-02-21T21:19:08;8.20;99.90
51841;DHT22;37888;53.246;6.658;2024-02-21T21:21:34;8.30;99.90
51841;DHT22;37888;53.246;6.658;2024-02-21T21:24:00;8.20;99.90
51841;DHT22;37888;53.246;6.658;2024-02-21T21:26:25;8.30;99.90
51841;DHT22;37888;53.246;6.658;2024-02-21T21:28:51;8.50;99.90
51841;DHT22;37888;53.246;6.658;2024-02-21T21:31:23;8.20;99.90
51841;DHT22;37888;53.246;6.658;2024-02-21T21:33:49;8.20;99.90
51841;DHT22;37888;53.246;6.658;2024-02-21T21:36:14;8.20;99.90
51841;DHT22;37888;53.246;6.658;2024-02-21T21:38:40;8.50;99.90
51841;DHT22;37888;53.246;6.658;2024-02-21T21:41:06;8.20;99.90
51841;DHT22;37888;53.246;6.658;2024-02-21T21:43:32;8.40;99.90
51841;DHT22;37888;53.246;6.658;2024-02-21T21:45:57;8.60;99.90
51841;DHT22;37888;53.246;6.658;2024-02-21T21:48:23;8.50;99.90
51841;DHT22;37888;53.246;6.658;2024-02-21T21:50:48;8.40;99.90
51841;DHT22;37888;53.246;6.658;2024-02-21T21:53:14;8.60;99.90
51841;DHT22;37888;53.246;6.658;2024-02-21T21:55:41;8.20;99.90
51841;DHT22;37888;53.246;6.658;2024-02-21T21:58:06;8.50;99.90
51841;DHT22;37888;53.246;6.658;2024-02-21T22:00:34;8.60;99.90
51841;DHT22;37888;53.246;6.658;2024-02-21T22:03:01;8.20;99.90
51841;DHT22;37888;53.246;6.658;2024-02-21T22:05:29;8.20;99.90
51841;DHT22;37888;53.246;6.658;2024-02-21T22:07:54;8.30;99.90
51841;DHT22;37888;53.246;6.658;2024-02-21T22:10:20;8.50;99.90
51841;DHT22;37888;53.246;6.658;2024-02-21T22:12:46;8.40;99.90
51841;DHT22;37888;53.246;6.658;2024-02-21T22:15:11;8.40;99.90
51841;DHT22;37888;53.246;6.658;2024-02-21T22:17:37;8.20;99.90
51841;DHT22;37888;53.246;6.658;2024-02-21T22:20:03;8.40;99.90
51841;DHT22;37888;53.246;6.658;2024-02-21T22:22:29;8.60;99.90
51841;DHT22;37888;53.246;6.658;2024-02-21T22:24:55;8.40;99.90
51841;DHT22;37888;53.246;6.658;2024-02-21T22:27:21;8.50;99.90
51841;DHT22;37888;53.246;6.658;2024-02-21T22:29:49;8.70;99.90
51841;DHT22;37888;53.246;6.658;2024-02-21T22:32:16;8.70;99.90
51841;DHT22;37888;53.246;6.658;2024-02-21T22:34:41;8.70;99.90
51841;DHT22;37888;53.246;6.658;2024-02-21T22:37:07;8.20;99.90
51841;DHT22;37888;53.246;6.658;2024-02-21T22:39:32;8.20;99.90
51841;DHT22;37888;53.246;6.658;2024-02-21T22:41:58;8.60;99.90
51841;DHT22;37888;53.246;6.658;2024-02-21T22:44:24;8.70;99.90
51841;DHT22;37888;53.246;6.658;2024-02-21T22:46:49;8.20;99.90
51841;DHT22;37888;53.246;6.658;2024-02-21T22:49:15;8.70;99.90
51841;DHT22;37888;53.246;6.658;2024-02-21T22:51:41;8.70;99.90
51841;DHT22;37888;53.246;6.658;2024-02-21T22:54:06;8.70;99.90
51841;DHT22;37888;53.246;6.658;2024-02-21T22:56:33;8.30;99.90
51841;DHT22;37888;53.246;6.658;2024-02-21T22:58:58;8.40;99.90
51841;DHT22;37888;53.246;6.658;2024-02-21T23:01:24;8.40;99.90
51841;DHT22;37888;53.246;6.658;2024-02-21T23:03:50;8.50;99.90
51841;DHT22;37888;53.246;6.658;2024-02-21T23:06:16;8.80;99.90
51841;DHT22;37888;53.246;6.658;2024-02-21T23:08:42;8.30;99.90
51841;DHT22;37888;53.246;6.658;2024-02-21T23:11:08;8.40;99.90
51841;DHT22;37888;53.246;6.658;2024-02-21T23:13:34;8.50;99.90
51841;DHT22;37888;53.246;6.658;2024-02-21T23:16:00;8.70;99.90
51841;DHT22;37888;53.246;6.658;2024-02-21T23:18:26;8.40;99.90
51841;DHT22;37888;53.246;6.658;2024-02-21T23:20:52;8.80;99.90
51841;DHT22;37888;53.246;6.658;2024-02-21T23:23:21;8.80;99.90
51841;DHT22;37888;53.246;6.658;2024-02-21T23:25:47;8.80;99.90
51841;DHT22;37888;53.246;6.658;2024-02-21T23:28:14;8.60;99.90
51841;DHT22;37888;53.246;6.658;2024-02-21T23:30:40;8.40;99.90
51841;DHT22;37888;53.246;6.658;2024-02-21T23:33:07;8.90;99.90
51841;DHT22;37888;53.246;6.658;2024-02-21T23:35:33;8.60;99.90
51841;DHT22;37888;53.246;6.658;2024-02-21T23:37:59;8.70;99.90
51841;DHT22;37888;53.246;6.658;2024-02-21T23:40:26;8.50;99.90
51841;DHT22;37888;53.246;6.658;2024-02-21T23:42:51;8.50;99.90
51841;DHT22;37888;53.246;6.658;2024-02-21T23:45:17;8.40;99.90
51841;DHT22;37888;53.246;6.658;2024-02-21T23:47:42;8.40;99.90
51841;DHT22;37888;53.246;6.658;2024-02-21T23:50:09;8.90;99.90
51841;DHT22;37888;53.246;6.658;2024-02-21T23:52:35;8.70;99.90
51841;DHT22;37888;53.246;6.658;2024-02-21T23:55:00;8.70;99.90
51841;DHT22;37888;53.246;6.658;2024-02-21T23:57:27;9.00;99.90
51841;DHT22;37888;53.246;6.658;2024-02-21T23:59:53;8.40;99.90
